Time;durP1;ratioP1;P1;durP2;ratioP2;P2;SDS_P1;SDS_P2;PMS_P1;PMS_P2;Temp;Humidity;BMP_temperature;BMP_pressure;BME280_temperature;BME280_humidity;BME280_pressure;Samples;Min_cycle;Max_cycle;Signal;HPM_P1;HPM_P2
2024/03/22 00:00:25;;;;;;;;;;;;;;;23.23;49.04;94883.25;5010259;28;9144;-59
2024/03/22 00:03:02;;;;;;;;;;;;;;;23.22;49.22;94887.25;4986914;28;8785;-59
2024/03/22 00:05:42;;;;;;;;;;;;;;;23.17;48.83;94878.94;4987686;28;9118;-59
2024/03/22 00:08:09;;;;;;;;;;;;;;;23.20;48.80;94892.47;5014713;28;9075;-61
2024/03/22 00:10:35;;;;;;;;;;;;;;;23.21;48.53;94884.97;5014434;28;6996;-61
2024/03/22 00:13:34;;;;;;;;;;;;;;;23.20;49.04;94883.47;5031353;28;9396;-62
2024/03/22 00:16:09;;;;;;;;;;;;;;;23.20;48.75;94888.97;4943974;28;9019;-62
2024/03/22 00:18:59;;;;;;;;;;;;;;;23.21;49.24;94891.22;4940301;28;8798;-63
2024/03/22 00:21:47;;;;;;;;;;;;;;;23.19;48.90;94887.44;4940174;28;8777;-63
2024/03/22 00:24:21;;;;;;;;;;;;;;;23.16;49.01;94891.19;4940363;28;8803;-63
2024/03/22 00:27:04;;;;;;;;;;;;;;;23.07;48.78;94864.66;4955973;28;7815;-63
2024/03/22 00:29:32;;;;;;;;;;;;;;;23.15;48.80;94876.69;4964208;28;8815;-62
2024/03/22 00:32:02;;;;;;;;;;;;;;;23.11;49.13;94869.91;4953167;28;7743;-63
2024/03/22 00:34:28;;;;;;;;;;;;;;;23.13;48.95;94881.91;4921897;28;9134;-63
2024/03/22 00:37:27;;;;;;;;;;;;;;;23.13;48.79;94876.44;4955724;28;9603;-63
2024/03/22 00:40:10;;;;;;;;;;;;;;;23.14;49.12;94875.19;4879580;29;8598;-63
2024/03/22 00:42:44;;;;;;;;;;;;;;;23.09;48.92;94864.91;4880157;29;8707;-63
2024/03/22 00:45:26;;;;;;;;;;;;;;;23.11;48.76;94862.44;4895099;29;7037;-63
2024/03/22 00:47:52;;;;;;;;;;;;;;;23.14;48.79;94866.22;4891141;29;9060;-63
2024/03/22 00:50:35;;;;;;;;;;;;;;;23.14;48.82;94866.22;4878375;29;9392;-63
2024/03/22 00:53:21;;;;;;;;;;;;;;;23.13;49.04;94868.19;4971268;28;9260;-63
2024/03/22 00:56:06;;;;;;;;;;;;;;;23.13;49.21;94862.72;4962125;28;8691;-63
2024/03/22 00:58:48;;;;;;;;;;;;;;;23.09;48.85;94856.69;4957051;28;9132;-63
2024/03/22 01:01:23;;;;;;;;;;;;;;;23.12;48.49;94860.44;4958698;28;9260;-63
2024/03/22 01:03:58;;;;;;;;;;;;;;;23.11;48.92;94854.22;4958968;28;9139;-62
2024/03/22 01:06:25;;;;;;;;;;;;;;;23.11;49.10;94856.19;4974487;28;9139;-63
2024/03/22 01:08:53;;;;;;;;;;;;;;;23.09;49.06;94853.19;4945814;28;8859;-63
2024/03/22 01:11:19;;;;;;;;;;;;;;;23.08;48.64;94855.16;4957430;28;9156;-63
2024/03/22 01:13:45;;;;;;;;;;;;;;;23.06;48.54;94846.66;4969062;28;9338;-63
2024/03/22 01:16:13;;;;;;;;;;;;;;;23.08;48.82;94846.19;4994236;28;9221;-63
2024/03/22 01:18:39;;;;;;;;;;;;;;;23.06;48.89;94840.41;5056828;28;9429;-63
2024/03/22 01:21:11;;;;;;;;;;;;;;;23.07;49.03;94845.44;5055049;28;9699;-63
2024/03/22 01:23:42;;;;;;;;;;;;;;;23.08;48.73;94851.66;5046153;28;9064;-63
2024/03/22 01:26:08;;;;;;;;;;;;;;;23.05;49.09;94850.63;5040643;28;9005;-59
2024/03/22 01:28:36;;;;;;;;;;;;;;;23.05;48.99;94850.63;5053601;28;8803;-69
2024/03/22 01:31:03;;;;;;;;;;;;;;;23.02;49.23;94842.63;5060282;28;8697;-68
2024/03/22 01:33:35;;;;;;;;;;;;;;;23.04;48.79;94842.91;5039611;28;8812;-68
2024/03/22 01:36:05;;;;;;;;;;;;;;;23.03;48.70;94836.66;5053157;28;9246;-68
2024/03/22 01:38:40;;;;;;;;;;;;;;;23.00;49.00;94837.63;5048676;28;9687;-68
2024/03/22 01:41:12;;;;;;;;;;;;;;;23.02;48.86;94846.13;5071821;28;9419;-68
2024/03/22 01:43:38;;;;;;;;;;;;;;;23.00;48.72;94828.63;5057425;28;9331;-68
2024/03/22 01:46:07;;;;;;;;;;;;;;;22.99;48.79;94836.09;5035540;28;8772;-69
2024/03/22 01:48:34;;;;;;;;;;;;;;;22.95;48.75;94824.59;5037848;28;7293;-69
2024/03/22 01:51:02;;;;;;;;;;;;;;;22.96;49.22;94825.34;5062325;28;9032;-69
2024/03/22 01:53:29;;;;;;;;;;;;;;;22.97;48.66;94821.38;5061469;28;9140;-69
2024/03/22 01:55:57;;;;;;;;;;;;;;;22.95;48.95;94819.13;5038126;28;9117;-69
2024/03/22 01:58:31;;;;;;;;;;;;;;;22.90;48.85;94811.56;5063957;28;9141;-69
2024/03/22 02:00:58;;;;;;;;;;;;;;;22.91;48.81;94815.84;5065232;28;7122;-69
2024/03/22 02:03:24;;;;;;;;;;;;;;;22.93;48.98;94815.34;5057491;28;9030;-69
2024/03/22 02:05:52;;;;;;;;;;;;;;;22.94;49.37;94811.38;5068558;28;8731;-60
2024/03/22 02:08:20;;;;;;;;;;;;;;;22.92;49.11;94814.59;5035847;28;9796;-70
2024/03/22 02:10:46;;;;;;;;;;;;;;;22.92;48.99;94808.38;5085042;28;9174;-70
2024/03/22 02:13:12;;;;;;;;;;;;;;;22.95;49.10;94807.38;5041617;28;7030;-69
2024/03/22 02:15:43;;;;;;;;;;;;;;;22.89;48.63;94793.63;5063711;28;9229;-69
2024/03/22 02:18:11;;;;;;;;;;;;;;;22.93;48.98;94799.66;5050679;28;7216;-70
2024/03/22 02:20:37;;;;;;;;;;;;;;;22.92;48.77;94803.59;5068227;28;9125;-69
2024/03/22 02:23:03;;;;;;;;;;;;;;;22.92;49.48;94798.13;5053378;28;7352;-69
2024/03/22 02:25:29;;;;;;;;;;;;;;;22.92;48.87;94803.59;5027101;28;9671;-69
2024/03/22 02:27:56;;;;;;;;;;;;;;;22.89;48.72;94795.59;5062354;28;9038;-69
2024/03/22 02:30:22;;;;;;;;;;;;;;;22.92;49.19;94795.38;5053974;28;9017;-69
2024/03/22 02:32:50;;;;;;;;;;;;;;;22.91;49.35;94791.16;5058287;28;8991;-69
2024/03/22 02:35:16;;;;;;;;;;;;;;;22.92;48.74;94798.13;5063548;28;9129;-69
2024/03/22 02:37:42;;;;;;;;;;;;;;;22.90;48.88;94794.38;5053322;28;8785;-63
2024/03/22 02:40:13;;;;;;;;;;;;;;;22.84;48.97;94788.81;5053277;28;8881;-63
2024/03/22 02:43:10;;;;;;;;;;;;;;;22.87;49.21;94787.88;5052653;28;8712;-63
2024/03/22 02:45:49;;;;;;;;;;;;;;;22.86;49.18;94791.84;4997673;28;8675;-62
2024/03/22 02:48:34;;;;;;;;;;;;;;;22.82;49.13;94783.06;4975651;28;9425;-63
2024/03/22 02:51:01;;;;;;;;;;;;;;;22.80;48.67;94779.31;5029349;28;9064;-63
2024/03/22 02:53:44;;;;;;;;;;;;;;;22.87;48.93;94784.38;5008894;28;9526;-63
2024/03/22 02:56:21;;;;;;;;;;;;;;;22.86;48.76;94775.38;4965660;28;9109;-63
2024/03/22 02:58:49;;;;;;;;;;;;;;;22.85;48.79;94771.16;4996225;28;9672;-63
2024/03/22 03:01:24;;;;;;;;;;;;;;;22.81;48.88;94765.13;5014292;28;9409;-63
2024/03/22 03:03:51;;;;;;;;;;;;;;;22.81;48.75;94754.16;5008859;28;9041;-63
2024/03/22 03:06:19;;;;;;;;;;;;;;;22.84;48.66;94766.88;4995329;28;9821;-63
2024/03/22 03:08:46;;;;;;;;;;;;;;;22.86;48.62;94769.91;4994464;28;7502;-63
2024/03/22 03:11:13;;;;;;;;;;;;;;;22.85;48.65;94770.38;4989446;28;8788;-63
2024/03/22 03:13:39;;;;;;;;;;;;;;;22.84;49.32;94760.63;4995008;28;9234;-63
2024/03/22 03:16:05;;;;;;;;;;;;;;;22.84;49.51;94753.16;5020874;28;9384;-63
2024/03/22 03:18:34;;;;;;;;;;;;;;;22.85;48.83;94753.94;4998675;28;8640;-63
2024/03/22 03:21:00;;;;;;;;;;;;;;;22.85;48.75;94749.19;5002355;28;8999;-63
2024/03/22 03:23:27;;;;;;;;;;;;;;;22.85;48.48;94754.69;5045686;28;8628;-63
2024/03/22 03:25:53;;;;;;;;;;;;;;;22.81;48.70;94736.94;5037540;28;8715;-63
2024/03/22 03:28:20;;;;;;;;;;;;;;;22.85;48.93;94737.47;5053104;28;9228;-63
2024/03/22 03:30:45;;;;;;;;;;;;;;;22.80;48.57;94738.94;5055258;28;7187;-63
2024/03/22 03:33:15;;;;;;;;;;;;;;;22.85;48.96;94743.72;5061981;28;9534;-64
2024/03/22 03:35:45;;;;;;;;;;;;;;;22.84;48.87;94742.19;5059208;28;8996;-64
2024/03/22 03:38:17;;;;;;;;;;;;;;;22.81;48.70;94740.44;5073320;28;8870;-63
2024/03/22 03:40:45;;;;;;;;;;;;;;;22.80;48.97;94746.41;5064373;28;8655;-63
2024/03/22 03:43:12;;;;;;;;;;;;;;;22.84;48.83;94744.94;5063275;28;8944;-63
2024/03/22 03:45:40;;;;;;;;;;;;;;;22.84;48.79;94744.19;5062620;28;9645;-63
2024/03/22 03:48:07;;;;;;;;;;;;;;;22.81;48.88;94734.19;5056055;28;9637;-60
2024/03/22 03:50:33;;;;;;;;;;;;;;;22.81;48.89;94732.22;5053634;28;9021;-60
2024/03/22 03:53:02;;;;;;;;;;;;;;;22.82;48.88;94730.22;5071078;28;9026;-60
2024/03/22 03:55:28;;;;;;;;;;;;;;;22.86;49.10;94739.72;5058079;28;9430;-60
2024/03/22 03:58:00;;;;;;;;;;;;;;;22.84;48.85;94724.97;5044053;28;8996;-60
2024/03/22 04:01:05;;;;;;;;;;;;;;;22.85;48.59;94727.25;5054775;28;9161;-60
2024/03/22 04:03:48;;;;;;;;;;;;;;;22.87;48.94;94729.50;5062106;28;9472;-60
2024/03/22 04:06:14;;;;;;;;;;;;;;;22.86;48.93;94723.28;5028184;28;9080;-60
2024/03/22 04:08:40;;;;;;;;;;;;;;;22.81;48.98;94715.75;5062308;28;9075;-60
2024/03/22 04:11:08;;;;;;;;;;;;;;;22.84;48.59;94720.25;5040812;28;9089;-60
2024/03/22 04:13:36;;;;;;;;;;;;;;;22.84;48.95;94714.78;5064195;28;9108;-59
2024/03/22 04:16:04;;;;;;;;;;;;;;;22.85;48.68;94712.78;5053857;28;8745;-60
2024/03/22 04:18:44;;;;;;;;;;;;;;;22.83;48.80;94707.81;5073900;28;9322;-60
2024/03/22 04:21:28;;;;;;;;;;;;;;;22.85;48.54;94708.06;5044130;28;9011;-60
2024/03/22 04:24:08;;;;;;;;;;;;;;;22.85;48.43;94702.59;5057618;28;9029;-60
2024/03/22 04:27:07;;;;;;;;;;;;;;;22.85;48.41;94707.31;5035582;28;9146;-60
2024/03/22 04:29:35;;;;;;;;;;;;;;;22.83;48.53;94705.06;5039007;28;7187;-60
2024/03/22 04:32:08;;;;;;;;;;;;;;;22.83;48.76;94698.81;5038358;28;9829;-60
2024/03/22 04:34:36;;;;;;;;;;;;;;;22.81;48.73;94704.78;5057511;28;8986;-60
2024/03/22 04:37:37;;;;;;;;;;;;;;;22.81;48.98;94707.53;5059472;28;9560;-60
2024/03/22 04:40:09;;;;;;;;;;;;;;;22.82;48.97;94709.03;5067018;28;7106;-60
2024/03/22 04:43:29;;;;;;;;;;;;;;;22.79;48.79;94718.25;5061019;28;8982;-60
2024/03/22 04:46:33;;;;;;;;;;;;;;;22.79;48.83;94712.75;5018202;28;9345;-60
2024/03/22 04:49:01;;;;;;;;;;;;;;;22.79;48.79;94715.50;4981412;28;9257;-60
2024/03/22 04:51:49;;;;;;;;;;;;;;;22.81;48.50;94710.28;4984422;28;8960;-60
2024/03/22 04:54:25;;;;;;;;;;;;;;;22.79;48.40;94710.00;4959606;28;9357;-60
2024/03/22 04:56:52;;;;;;;;;;;;;;;22.76;48.77;94710.97;4959246;28;8667;-63
2024/03/22 04:59:20;;;;;;;;;;;;;;;22.79;48.81;94707.28;4972625;28;9416;-63
2024/03/22 05:01:48;;;;;;;;;;;;;;;22.78;48.51;94705.75;4956512;28;8810;-64
2024/03/22 05:04:14;;;;;;;;;;;;;;;22.78;48.82;94705.00;4973287;28;8728;-63
2024/03/22 05:06:40;;;;;;;;;;;;;;;22.77;48.84;94704.22;4982678;28;8737;-63
2024/03/22 05:09:10;;;;;;;;;;;;;;;22.79;48.43;94703.78;4958082;28;8309;-64
2024/03/22 05:11:56;;;;;;;;;;;;;;;22.79;48.42;94698.28;4958723;28;8880;-64
2024/03/22 05:14:37;;;;;;;;;;;;;;;22.77;48.21;94690.53;4958801;28;9109;-64
2024/03/22 05:17:05;;;;;;;;;;;;;;;22.79;48.88;94695.53;4970958;28;9111;-63
2024/03/22 05:19:33;;;;;;;;;;;;;;;22.80;48.61;94694.28;4986265;28;9088;-63
2024/03/22 05:22:00;;;;;;;;;;;;;;;22.79;48.66;94690.06;5041654;28;8689;-64
2024/03/22 05:24:26;;;;;;;;;;;;;;;22.80;48.81;94686.81;5036752;28;9054;-63
2024/03/22 05:27:03;;;;;;;;;;;;;;;22.77;48.38;94693.25;5053563;28;9181;-63
2024/03/22 05:29:29;;;;;;;;;;;;;;;22.78;49.00;94691.28;5054632;28;9350;-63
2024/03/22 05:31:55;;;;;;;;;;;;;;;22.80;48.66;94686.81;5024914;28;9206;-64
2024/03/22 05:34:23;;;;;;;;;;;;;;;22.85;48.41;94686.13;5077021;28;9486;-64
2024/03/22 05:36:49;;;;;;;;;;;;;;;22.87;48.87;94686.41;5051038;28;9509;-63
2024/03/22 05:39:30;;;;;;;;;;;;;;;22.89;48.64;94683.91;5063003;28;7593;-63
2024/03/22 05:42:00;;;;;;;;;;;;;;;22.87;48.51;94680.16;5047242;28;9051;-63
2024/03/22 05:44:33;;;;;;;;;;;;;;;22.93;48.88;94681.69;5039878;28;7077;-62
2024/03/22 05:47:07;;;;;;;;;;;;;;;22.92;49.15;94671.22;5046729;28;9174;-63
2024/03/22 05:49:40;;;;;;;;;;;;;;;22.98;48.78;94678.25;5036894;28;9265;-64
2024/03/22 05:52:23;;;;;;;;;;;;;;;22.98;49.14;94678.25;5032795;28;7136;-61
2024/03/22 05:55:08;;;;;;;;;;;;;;;23.02;48.95;94684.28;5063106;28;9265;-65
2024/03/22 05:57:37;;;;;;;;;;;;;;;23.03;48.82;94677.53;5065092;28;7281;-65
2024/03/22 06:00:06;;;;;;;;;;;;;;;23.03;49.27;94677.53;5061285;28;6866;-63
2024/03/22 06:02:33;;;;;;;;;;;;;;;23.03;49.28;94674.06;5042136;28;9723;-61
2024/03/22 06:05:04;;;;;;;;;;;;;;;22.95;49.12;94660.03;5035536;28;9527;-61
2024/03/22 06:07:30;;;;;;;;;;;;;;;23.03;49.23;94663.09;5043896;28;8990;-61
2024/03/22 06:09:56;;;;;;;;;;;;;;;23.08;49.36;94667.84;5047600;28;9738;-60
2024/03/22 06:12:40;;;;;;;;;;;;;;;23.11;49.03;94666.88;5054967;28;8713;-62
2024/03/22 06:15:25;;;;;;;;;;;;;;;23.13;49.64;94664.41;5029914;28;7007;-64
2024/03/22 06:17:51;;;;;;;;;;;;;;;23.14;49.79;94663.19;5042453;28;9411;-62
2024/03/22 06:20:19;;;;;;;;;;;;;;;23.14;49.83;94668.66;5055006;28;9000;-62
2024/03/22 06:23:05;;;;;;;;;;;;;;;23.14;49.91;94671.41;5027057;28;9166;-61
2024/03/22 06:25:56;;;;;;;;;;;;;;;23.19;50.03;94665.94;5048557;28;8881;-61
2024/03/22 06:28:58;;;;;;;;;;;;;;;23.18;48.22;94666.44;5056953;28;8803;-61
2024/03/22 06:32:15;;;;;;;;;;;;;;;23.07;47.34;94660.88;5059428;28;9371;-61
2024/03/22 06:34:46;;;;;;;;;;;;;;;23.02;48.54;94667.81;5050061;28;8729;-64
2024/03/22 06:37:58;;;;;;;;;;;;;;;23.05;48.89;94663.34;5062854;28;8165;-63
2024/03/22 06:40:43;;;;;;;;;;;;;;;23.07;48.76;94661.63;5063895;28;9370;-62
2024/03/22 06:43:16;;;;;;;;;;;;;;;23.08;48.87;94662.34;5064203;28;9030;-60
2024/03/22 06:45:56;;;;;;;;;;;;;;;23.08;49.02;94657.63;5031773;28;9013;-59
2024/03/22 06:48:22;;;;;;;;;;;;;;;23.09;48.60;94661.91;5059373;28;9304;-59
2024/03/22 06:50:55;;;;;;;;;;;;;;;23.09;48.35;94655.66;5058916;28;9040;-59
2024/03/22 06:53:22;;;;;;;;;;;;;;;23.08;48.84;94663.13;5049462;28;9433;-59
2024/03/22 06:56:11;;;;;;;;;;;;;;;23.07;49.42;94667.13;5065267;28;6923;-59
2024/03/22 06:58:44;;;;;;;;;;;;;;;23.09;48.86;94661.13;5053735;28;9189;-59
2024/03/22 07:01:16;;;;;;;;;;;;;;;23.03;48.35;94644.63;5046404;28;9124;-59
2024/03/22 07:03:47;;;;;;;;;;;;;;;23.05;48.70;94658.59;5037141;28;9338;-59
2024/03/22 07:06:26;;;;;;;;;;;;;;;23.09;48.96;94664.63;5060002;28;9151;-60
2024/03/22 07:08:51;;;;;;;;;;;;;;;23.09;48.86;94659.16;5067171;28;8823;-60
2024/03/22 07:11:17;;;;;;;;;;;;;;;23.10;48.64;94654.38;5062160;28;9095;-60
2024/03/22 07:14:09;;;;;;;;;;;;;;;23.09;48.77;94659.16;5038848;28;7048;-60
2024/03/22 07:16:53;;;;;;;;;;;;;;;23.10;48.72;94657.91;5051969;28;9040;-60
2024/03/22 07:19:22;;;;;;;;;;;;;;;23.10;48.39;94660.63;5053186;28;8771;-60
2024/03/22 07:21:56;;;;;;;;;;;;;;;23.09;48.88;94655.66;5051788;28;9156;-60
2024/03/22 07:24:32;;;;;;;;;;;;;;;23.13;48.86;94658.91;5043528;28;6828;-60
2024/03/22 07:27:00;;;;;;;;;;;;;;;23.12;49.31;94669.13;5067515;28;7352;-60
2024/03/22 07:29:52;;;;;;;;;;;;;;;23.15;48.67;94659.94;5041868;28;9315;-60
2024/03/22 07:32:22;;;;;;;;;;;;;;;23.15;48.70;94653.69;5015228;28;9110;-60
2024/03/22 07:35:07;;;;;;;;;;;;;;;23.15;48.81;94657.19;4987423;28;8729;-60
2024/03/22 07:37:43;;;;;;;;;;;;;;;23.16;48.91;94657.94;4988955;28;9337;-60
2024/03/22 07:40:21;;;;;;;;;;;;;;;23.17;49.01;94660.19;4993444;28;9678;-60
2024/03/22 07:42:59;;;;;;;;;;;;;;;23.15;49.31;94662.69;5003953;28;9050;-60
2024/03/22 07:45:27;;;;;;;;;;;;;;;23.18;48.87;94660.94;5003722;28;8743;-60
2024/03/22 07:48:03;;;;;;;;;;;;;;;23.19;49.25;94656.94;5004741;28;9355;-59
2024/03/22 07:50:29;;;;;;;;;;;;;;;23.17;48.51;94660.19;4996973;28;8745;-60
2024/03/22 07:53:09;;;;;;;;;;;;;;;23.16;49.14;94655.94;5010355;28;8916;-60
2024/03/22 07:55:36;;;;;;;;;;;;;;;23.18;49.19;94661.69;4992138;28;9215;-60
2024/03/22 07:58:02;;;;;;;;;;;;;;;23.20;49.44;94666.69;5010732;28;9081;-60
2024/03/22 08:00:47;;;;;;;;;;;;;;;23.23;48.94;94658.22;5002621;28;9250;-60
2024/03/22 08:03:20;;;;;;;;;;;;;;;23.25;49.06;94666.72;4997961;28;9107;-60
2024/03/22 08:06:24;;;;;;;;;;;;;;;23.29;49.28;94654.78;4998427;28;9023;-60
2024/03/22 08:08:50;;;;;;;;;;;;;;;23.29;49.34;94663.78;5002579;28;9232;-60
2024/03/22 08:11:16;;;;;;;;;;;;;;;23.32;49.13;94654.56;5034694;28;8587;-60
2024/03/22 08:13:42;;;;;;;;;;;;;;;23.29;48.85;94644.56;5029366;28;9386;-60
2024/03/22 08:16:10;;;;;;;;;;;;;;;23.37;49.04;94664.84;5016626;28;9488;-58
2024/03/22 08:18:38;;;;;;;;;;;;;;;23.38;48.36;94657.38;5021336;28;6890;-73
2024/03/22 08:21:05;;;;;;;;;;;;;;;23.36;47.55;94648.88;5018183;28;9331;-72
2024/03/22 08:23:34;;;;;;;;;;;;;;;23.30;46.92;94651.53;5038243;28;10026;-71
2024/03/22 08:26:00;;;;;;;;;;;;;;;23.24;48.01;94642.53;5020800;28;8690;-71
2024/03/22 08:28:27;;;;;;;;;;;;;;;23.26;47.84;94642.78;5037057;28;8738;-72
2024/03/22 08:30:53;;;;;;;;;;;;;;;23.33;47.46;94647.88;5016707;28;9696;-66
2024/03/22 08:33:19;;;;;;;;;;;;;;;23.34;47.50;94648.63;5029884;28;9523;-76
2024/03/22 08:35:45;;;;;;;;;;;;;;;23.35;47.69;94644.63;5035565;28;9783;-76
2024/03/22 08:38:14;;;;;;;;;;;;;;;23.35;47.64;94642.63;5023560;28;9046;-75
2024/03/22 08:40:41;;;;;;;;;;;;;;;23.38;47.86;94638.16;5044390;28;9181;-76
2024/03/22 08:43:07;;;;;;;;;;;;;;;23.34;48.29;94635.63;5056450;28;7041;-77
2024/03/22 08:45:36;;;;;;;;;;;;;;;23.40;48.05;94633.69;5047274;28;8766;-77
2024/03/22 08:48:02;;;;;;;;;;;;;;;23.40;48.02;94639.19;5037661;28;9010;-76
2024/03/22 08:50:28;;;;;;;;;;;;;;;23.37;48.11;94633.91;5052609;28;9051;-77
2024/03/22 08:52:56;;;;;;;;;;;;;;;23.42;48.26;94630.44;5037332;28;9347;-77
2024/03/22 08:55:22;;;;;;;;;;;;;;;23.47;48.12;94635.22;5065836;28;9510;-77
2024/03/22 08:57:53;;;;;;;;;;;;;;;23.51;47.62;94638.50;5067422;28;9417;-76
2024/03/22 09:00:21;;;;;;;;;;;;;;;23.56;47.89;94638.50;5048544;28;9406;-76
2024/03/22 09:02:47;;;;;;;;;;;;;;;23.61;48.36;94634.28;5066409;28;7031;-76
2024/03/22 09:05:15;;;;;;;;;;;;;;;23.64;47.63;94636.06;5056705;28;8704;-76
2024/03/22 09:07:40;;;;;;;;;;;;;;;23.65;47.95;94635.56;5037063;28;9062;-75
2024/03/22 09:10:07;;;;;;;;;;;;;;;23.67;48.14;94632.31;5058867;28;9512;-76
2024/03/22 09:12:33;;;;;;;;;;;;;;;23.66;48.24;94633.56;5069416;28;9040;-76
2024/03/22 09:15:03;;;;;;;;;;;;;;;23.70;48.10;94639.59;5034892;28;8776;-75
2024/03/22 09:17:30;;;;;;;;;;;;;;;23.72;47.84;94635.09;5037712;28;8873;-75
2024/03/22 09:20:07;;;;;;;;;;;;;;;23.72;47.94;94637.84;5039789;28;7003;-75
2024/03/22 09:22:46;;;;;;;;;;;;;;;23.75;47.41;94636.84;5054736;28;9147;-74
2024/03/22 09:25:14;;;;;;;;;;;;;;;23.69;47.82;94627.06;5050679;28;9030;-73
2024/03/22 09:27:51;;;;;;;;;;;;;;;23.76;47.63;94630.13;5054091;28;9451;-62
2024/03/22 09:30:26;;;;;;;;;;;;;;;23.78;47.70;94624.13;5051260;28;7460;-60
2024/03/22 09:33:25;;;;;;;;;;;;;;;23.76;47.42;94623.88;5050271;28;8947;-60
2024/03/22 09:36:04;;;;;;;;;;;;;;;23.76;47.48;94615.63;5037741;28;8605;-61
2024/03/22 09:38:32;;;;;;;;;;;;;;;23.76;47.78;94619.13;5044671;28;9090;-61
2024/03/22 09:41:00;;;;;;;;;;;;;;;23.76;47.63;94618.38;5053734;28;8703;-61
2024/03/22 09:44:02;;;;;;;;;;;;;;;23.74;47.45;94616.13;5059912;28;7019;-61
2024/03/22 09:46:28;;;;;;;;;;;;;;;23.73;47.98;94617.38;5035303;28;9402;-61
2024/03/22 09:48:54;;;;;;;;;;;;;;;23.70;47.65;94609.38;5048912;28;9086;-61
2024/03/22 09:51:37;;;;;;;;;;;;;;;23.72;47.81;94609.63;5035147;28;8762;-61
2024/03/22 09:54:09;;;;;;;;;;;;;;;23.70;48.21;94612.88;5053743;28;9181;-61
2024/03/22 09:56:38;;;;;;;;;;;;;;;23.69;47.70;94610.59;5060706;28;9835;-60
2024/03/22 09:59:11;;;;;;;;;;;;;;;23.69;47.93;94610.59;5058442;28;8802;-60
2024/03/22 10:02:00;;;;;;;;;;;;;;;23.68;47.45;94611.88;5056399;28;9423;-60
2024/03/22 10:04:39;;;;;;;;;;;;;;;23.69;47.84;94600.38;5035540;28;9354;-61
2024/03/22 10:07:05;;;;;;;;;;;;;;;23.66;47.44;94586.88;5055600;28;8533;-66
2024/03/22 10:09:33;;;;;;;;;;;;;;;23.72;47.51;94587.66;5053246;28;7218;-61
2024/03/22 10:11:59;;;;;;;;;;;;;;;23.70;47.75;94584.66;5065328;28;9128;-60
2024/03/22 10:14:25;;;;;;;;;;;;;;;23.73;47.08;94586.41;5058840;28;7034;-60
2024/03/22 10:17:04;;;;;;;;;;;;;;;23.73;47.60;94586.41;5052337;28;9042;-60
2024/03/22 10:19:41;;;;;;;;;;;;;;;23.75;47.08;94581.19;5045167;28;8975;-61
2024/03/22 10:22:07;;;;;;;;;;;;;;;23.74;47.34;94577.69;5049964;28;9041;-60
2024/03/22 10:24:40;;;;;;;;;;;;;;;23.75;47.70;94572.94;5070418;28;8634;-61
2024/03/22 10:27:08;;;;;;;;;;;;;;;23.71;47.56;94566.91;5059189;28;8692;-65
2024/03/22 10:29:36;;;;;;;;;;;;;;;23.76;48.14;94568.94;5058649;28;9181;-65
2024/03/22 10:32:03;;;;;;;;;;;;;;;23.81;49.16;94562.72;5049571;28;9277;-66
2024/03/22 10:34:39;;;;;;;;;;;;;;;23.86;49.13;94556.47;5061629;28;9695;-66
2024/03/22 10:37:17;;;;;;;;;;;;;;;23.87;49.39;94558.00;5059828;28;9163;-62
2024/03/22 10:40:07;;;;;;;;;;;;;;;23.87;49.23;94560.75;5063255;28;9030;-62
2024/03/22 10:42:44;;;;;;;;;;;;;;;23.83;50.88;94552.75;5023775;28;7106;-61
2024/03/22 10:45:12;;;;;;;;;;;;;;;23.82;50.87;94553.22;5045611;28;7296;-62
2024/03/22 10:47:45;;;;;;;;;;;;;;;23.72;49.48;94538.22;5062292;28;9375;-62
2024/03/22 10:50:23;;;;;;;;;;;;;;;23.67;48.37;94541.69;5056053;28;9564;-61
2024/03/22 10:53:28;;;;;;;;;;;;;;;23.61;47.77;94543.69;5038017;28;9394;-62
2024/03/22 10:56:01;;;;;;;;;;;;;;;23.53;47.63;94537.91;5065078;28;9038;-62
2024/03/22 10:58:29;;;;;;;;;;;;;;;23.56;47.76;94547.91;5070444;28;9360;-61
2024/03/22 11:04:32;;;;;;;;;;;;;;;23.56;47.47;94531.44;5048322;28;8904;-64
2024/03/22 11:06:59;;;;;;;;;;;;;;;23.57;47.24;94532.19;5031922;28;8940;-65
2024/03/22 11:09:27;;;;;;;;;;;;;;;23.54;47.93;94533.91;5040102;28;9557;-64
2024/03/22 11:11:56;;;;;;;;;;;;;;;23.54;47.33;94530.41;5031280;28;8904;-64
2024/03/22 11:14:25;;;;;;;;;;;;;;;23.55;47.78;94529.19;5036221;28;6978;-64
2024/03/22 11:17:04;;;;;;;;;;;;;;;23.56;47.69;94531.44;5021426;28;7189;-65
2024/03/22 11:19:33;;;;;;;;;;;;;;;23.55;47.45;94529.94;5027919;28;9301;-65
2024/03/22 11:22:05;;;;;;;;;;;;;;;23.55;47.21;94524.47;5044761;28;7647;-65
2024/03/22 11:25:00;;;;;;;;;;;;;;;23.56;47.15;94522.44;5036260;28;7053;-64
2024/03/22 11:27:35;;;;;;;;;;;;;;;23.60;46.82;94518.22;4967794;28;9058;-64
2024/03/22 11:30:35;;;;;;;;;;;;;;;23.62;47.14;94520.47;4983392;28;7176;-65
2024/03/22 11:33:05;;;;;;;;;;;;;;;23.63;46.45;94516.47;4974006;28;7023;-65
2024/03/22 11:35:42;;;;;;;;;;;;;;;23.64;46.62;94505.00;4993948;28;9414;-65
2024/03/22 11:38:17;;;;;;;;;;;;;;;23.68;47.03;94504.78;4979085;28;9034;-65
2024/03/22 11:40:59;;;;;;;;;;;;;;;23.62;46.70;94488.25;4998526;28;8947;-65
2024/03/22 11:43:31;;;;;;;;;;;;;;;23.70;46.41;94491.28;5002154;28;9122;-65
2024/03/22 11:45:59;;;;;;;;;;;;;;;23.66;46.05;94485.28;5013547;28;7196;-65
2024/03/22 11:48:45;;;;;;;;;;;;;;;23.72;46.83;94489.56;5015189;28;8908;-61
2024/03/22 11:51:13;;;;;;;;;;;;;;;23.69;46.31;94484.28;4997686;28;9291;-63
2024/03/22 11:54:07;;;;;;;;;;;;;;;23.66;45.98;94479.81;4993749;28;8691;-61
2024/03/22 11:56:36;;;;;;;;;;;;;;;23.66;45.28;94479.81;5018318;28;9589;-63
2024/03/22 11:59:20;;;;;;;;;;;;;;;23.69;44.25;94479.56;5000352;28;9418;-64
2024/03/22 12:01:55;;;;;;;;;;;;;;;23.70;44.77;94464.59;4988461;28;7352;-64
2024/03/22 12:04:47;;;;;;;;;;;;;;;23.73;45.78;94462.81;5028684;28;9375;-63
2024/03/22 12:07:24;;;;;;;;;;;;;;;23.74;45.38;94453.34;5027247;28;9285;-63
2024/03/22 12:09:49;;;;;;;;;;;;;;;23.75;45.98;94449.38;4998702;28;9229;-63
2024/03/22 12:12:17;;;;;;;;;;;;;;;23.73;45.49;94443.59;5014447;28;8705;-64
2024/03/22 12:14:43;;;;;;;;;;;;;;;23.71;45.27;94440.59;5027523;28;9137;-64
2024/03/22 12:17:59;;;;;;;;;;;;;;;23.73;46.07;94441.59;5022186;28;7180;-64
2024/03/22 12:20:39;;;;;;;;;;;;;;;23.75;45.89;94438.38;4997850;28;9134;-64
2024/03/22 12:23:05;;;;;;;;;;;;;;;23.75;45.73;94435.63;4990030;28;9388;-64
2024/03/22 12:25:50;;;;;;;;;;;;;;;23.78;45.84;94432.63;5014273;28;9281;-64
2024/03/22 12:28:25;;;;;;;;;;;;;;;23.80;45.63;94426.63;5006507;28;9794;-63
2024/03/22 12:31:13;;;;;;;;;;;;;;;23.79;45.04;94416.91;5002731;28;9310;-64
2024/03/22 12:33:55;;;;;;;;;;;;;;;23.77;45.17;94414.66;5016526;28;8908;-64
2024/03/22 12:36:25;;;;;;;;;;;;;;;23.72;45.21;94398.19;5032246;28;9464;-60
2024/03/22 12:39:04;;;;;;;;;;;;;;;23.75;45.08;94395.16;5021192;28;9023;-62
2024/03/22 12:41:32;;;;;;;;;;;;;;;23.68;45.01;94394.94;5014906;28;9119;-62
2024/03/22 12:44:18;;;;;;;;;;;;;;;23.57;43.70;94386.69;5035171;28;8564;-62
2024/03/22 12:46:45;;;;;;;;;;;;;;;23.48;43.26;94375.94;5037783;28;7078;-62
2024/03/22 12:49:16;;;;;;;;;;;;;;;23.29;41.73;94366.63;5046535;28;9027;-61
2024/03/22 12:51:49;;;;;;;;;;;;;;;23.19;41.63;94366.88;5039501;28;9523;-62
2024/03/22 12:54:18;;;;;;;;;;;;;;;23.11;40.82;94365.84;5067247;28;9250;-62
2024/03/22 12:57:04;;;;;;;;;;;;;;;23.10;40.02;94358.84;5084019;28;6866;-58
2024/03/22 12:59:32;;;;;;;;;;;;;;;23.14;40.14;94353.88;5053482;28;9055;-58
2024/03/22 13:02:01;;;;;;;;;;;;;;;23.21;40.09;94356.13;5038271;28;7283;-58
2024/03/22 13:05:02;;;;;;;;;;;;;;;23.32;39.65;94347.19;5068510;28;9973;-59
2024/03/22 13:07:48;;;;;;;;;;;;;;;23.41;39.23;94348.97;4987474;28;9615;-59
2024/03/22 13:10:14;;;;;;;;;;;;;;;23.49;39.42;94345.22;4987277;28;9434;-59
2024/03/22 13:12:39;;;;;;;;;;;;;;;23.66;39.82;94348.00;4993514;28;9562;-60
2024/03/22 13:15:06;;;;;;;;;;;;;;;23.87;40.12;94335.50;4994557;28;8864;-59
2024/03/22 13:18:02;;;;;;;;;;;;;;;24.09;39.91;94326.53;4998101;28;9066;-59
2024/03/22 13:20:28;;;;;;;;;;;;;;;24.29;39.25;94338.00;4980159;28;8702;-59
2024/03/22 13:22:55;;;;;;;;;;;;;;;24.46;39.46;94330.44;4960354;28;9349;-59
2024/03/22 13:25:21;;;;;;;;;;;;;;;24.64;39.72;94323.63;4970510;28;8787;-58
2024/03/22 13:27:47;;;;;;;;;;;;;;;24.75;38.71;94311.88;4959012;28;9432;-60
2024/03/22 13:30:16;;;;;;;;;;;;;;;24.81;37.63;94310.59;4957240;28;9063;-59
2024/03/22 13:32:42;;;;;;;;;;;;;;;24.89;37.55;94308.78;4974090;28;9423;-57
2024/03/22 13:35:10;;;;;;;;;;;;;;;24.95;36.96;94301.25;4976546;28;7234;-57